Aviation Digital Data Service (ADDS)

Output produced by METARs form (0829 UTC 23 January 2017)
found at http://aviationweather.gov/adds/metars/
 
KAOO 230526Z 2306/2406 VRB03KT 5SM BR VCSH OVC007 
     FM230800 08013G20KT 2SM -RA BR OVC004 
     FM231400 07012G22KT 1SM RA BR OVC004 WS020/09030KT 
     FM232000 06012G22KT 1SM -RASN BR OVC003 WS020/07035KT